createdAt,value
2019-05-21T00:00:58.668Z,77
2019-05-21T00:02:10.868Z,88.6
2019-05-21T00:03:23.217Z,68.4
2019-05-21T00:04:35.337Z,76.2
2019-05-21T00:05:47.442Z,78.6
2019-05-21T00:06:59.761Z,85.7
2019-05-21T00:08:11.844Z,89.2
2019-05-21T00:09:24.017Z,81
2019-05-21T00:10:36.236Z,104.5
2019-05-21T00:11:48.423Z,97.4
2019-05-21T00:13:00.611Z,70.6
2019-05-21T00:14:12.900Z,77.1
2019-05-21T00:15:25.093Z,83.4
2019-05-21T00:16:37.193Z,80.7
2019-05-21T00:17:49.401Z,80.2
2019-05-21T00:19:01.754Z,105.8
2019-05-21T00:20:13.804Z,100.4
2019-05-21T00:21:25.983Z,79.6
2019-05-21T00:22:38.262Z,71.4
2019-05-21T00:23:50.392Z,74.6
2019-05-21T00:25:02.678Z,71.2
2019-05-21T00:26:14.852Z,70.2
2019-05-21T00:27:27.135Z,70.9
2019-05-21T00:28:39.154Z,63.3
2019-05-21T00:29:51.395Z,62.1
2019-05-21T00:31:03.548Z,75.3
2019-05-21T00:32:15.774Z,60
2019-05-21T00:33:27.942Z,66.9
2019-05-21T00:34:40.136Z,69.9
2019-05-21T00:35:52.320Z,60.8
2019-05-21T00:37:04.648Z,61.6
2019-05-21T00:38:16.755Z,67.2
2019-05-21T00:39:28.996Z,81.9
2019-05-21T00:40:41.126Z,64
2019-05-21T00:41:53.321Z,69.4
2019-05-21T00:43:05.553Z,63.3
2019-05-21T00:44:17.695Z,74.5
2019-05-21T00:45:29.907Z,67.1
2019-05-21T00:46:42.097Z,74.4
2019-05-21T00:47:54.299Z,61.5
2019-05-21T00:49:06.563Z,61.5
2019-05-21T00:50:18.678Z,53.8
2019-05-21T00:51:30.966Z,54.9
2019-05-21T00:52:43.074Z,58.7
2019-05-21T00:53:55.261Z,55.2
2019-05-21T00:55:07.617Z,69.3
2019-05-21T00:56:21.169Z,63.1
2019-05-21T00:57:31.857Z,61.6
2019-05-21T00:58:44.043Z,56.2
2019-05-21T00:59:56.319Z,63.2
2019-05-21T01:01:08.423Z,66.9
2019-05-21T01:02:20.625Z,73.2
2019-05-21T01:03:33.028Z,72.5
2019-05-21T01:04:45.139Z,69.2
2019-05-21T01:05:57.213Z,87.2
2019-05-21T01:07:09.422Z,69.6
2019-05-21T01:08:21.644Z,68.5
2019-05-21T01:09:33.816Z,80.3
2019-05-21T01:10:46.085Z,74
2019-05-21T01:11:58.724Z,64.7
2019-05-21T01:13:10.389Z,67.5
2019-05-21T01:14:22.735Z,71.6
2019-05-21T01:15:34.961Z,70.7
2019-05-21T01:16:46.985Z,66.6
2019-05-21T01:17:59.166Z,68.7
2019-05-21T01:19:11.405Z,65.6
2019-05-21T01:20:23.562Z,61.7
2019-05-21T01:21:35.787Z,60.5
2019-05-21T01:22:47.954Z,63.8
2019-05-21T01:24:00.155Z,79.8
2019-05-21T01:25:12.432Z,78.5
2019-05-21T01:26:24.541Z,74.2
2019-05-21T01:27:40.723Z,68.2
2019-05-21T01:28:48.918Z,84.7
2019-05-21T01:30:01.130Z,84
2019-05-21T01:31:13.339Z,77.3
2019-05-21T01:32:25.531Z,72.8
2019-05-21T01:33:37.753Z,66.8
2019-05-21T01:34:49.905Z,72.8
2019-05-21T01:36:02.106Z,75
2019-05-21T01:37:14.297Z,82.4
2019-05-21T01:38:26.494Z,93.8
2019-05-21T01:39:38.796Z,87.5
2019-05-21T01:40:51.250Z,69.2
2019-05-21T01:42:03.076Z,72.3
2019-05-21T01:43:15.287Z,69.4
2019-05-21T01:44:27.582Z,82
2019-05-21T01:45:39.665Z,74.5
2019-05-21T01:46:51.930Z,70.3
2019-05-21T01:48:04.061Z,77.5
2019-05-21T01:49:16.337Z,70.8
2019-05-21T01:50:28.451Z,87.2
2019-05-21T01:51:40.767Z,79
2019-05-21T01:52:52.928Z,77
2019-05-21T01:54:07.254Z,82.9
2019-05-21T01:55:17.236Z,82.4
2019-05-21T01:56:29.420Z,75.7
2019-05-21T01:57:41.616Z,87.3
2019-05-21T01:58:53.828Z,104
2019-05-21T02:00:06.031Z,86.2
2019-05-21T02:01:18.206Z,90
2019-05-21T02:02:30.407Z,92.2
2019-05-21T02:03:42.683Z,89
2019-05-21T02:04:54.867Z,80.6
2019-05-21T02:06:06.998Z,87.4
2019-05-21T02:07:19.265Z,96.1
2019-05-21T02:08:31.367Z,107.3
2019-05-21T02:09:43.580Z,96.2
2019-05-21T02:10:55.770Z,104.3
2019-05-21T02:12:07.982Z,110.2
2019-05-21T02:13:20.161Z,102.9
2019-05-21T02:14:36.538Z,103.7
2019-05-21T02:15:44.647Z,96.7
2019-05-21T02:16:56.752Z,93.4
2019-05-21T02:18:08.953Z,94.5
2019-05-21T02:19:21.136Z,112.8
2019-05-21T02:20:33.351Z,114.5
2019-05-21T02:21:45.529Z,104.3
2019-05-21T02:22:57.728Z,98.1
2019-05-21T02:24:09.953Z,117.6
2019-05-21T02:25:22.112Z,110.4
2019-05-21T02:26:35.865Z,113.2
2019-05-21T02:27:46.615Z,106.4
2019-05-21T02:28:58.709Z,115.3
2019-05-21T02:30:10.918Z,109.2
2019-05-21T02:31:23.197Z,123.7
2019-05-21T02:32:35.277Z,107.6
2019-05-21T02:33:47.513Z,90.5
2019-05-21T02:34:59.676Z,109.6
2019-05-21T02:36:11.880Z,112.1
2019-05-21T02:37:24.068Z,106.1
2019-05-21T02:38:36.254Z,100.8
2019-05-21T02:39:48.605Z,113.7
2019-05-21T02:41:00.757Z,105.2
2019-05-21T02:42:12.846Z,108.5
2019-05-21T02:43:25.042Z,99.6
2019-05-21T02:44:37.237Z,101.7
2019-05-21T02:45:49.434Z,124.1
2019-05-21T02:47:01.724Z,127.8
2019-05-21T02:48:13.819Z,108.8
2019-05-21T02:49:26.022Z,103.4
2019-05-21T02:50:38.323Z,97.1
2019-05-21T02:51:50.533Z,112.2
2019-05-21T02:53:02.610Z,127.6
2019-05-21T02:54:14.795Z,103.8
2019-05-21T02:55:30.239Z,139
2019-05-21T02:56:39.187Z,128.2
2019-05-21T02:57:51.442Z,119.7
2019-05-21T02:59:03.610Z,126.5
2019-05-21T03:00:18.655Z,114
2019-05-21T03:01:27.978Z,119.7
2019-05-21T03:02:40.169Z,142.8
2019-05-21T03:03:52.456Z,114.6
2019-05-21T03:05:04.555Z,106.3
2019-05-21T03:06:16.759Z,141.5
2019-05-21T03:07:29.040Z,126.1
2019-05-21T03:08:41.150Z,117.4
2019-05-21T03:09:53.362Z,124.1
2019-05-21T03:11:05.544Z,131.2
2019-05-21T03:12:17.743Z,123.3
2019-05-21T03:13:29.946Z,139.9
2019-05-21T03:14:42.123Z,122.6
2019-05-21T03:15:54.450Z,130.5
2019-05-21T03:17:06.607Z,126.1
2019-05-21T03:18:18.698Z,129.4
2019-05-21T03:19:30.904Z,116.2
2019-05-21T03:20:43.148Z,138.2
2019-05-21T03:21:55.441Z,133.9
2019-05-21T03:23:07.573Z,130.9
2019-05-21T03:24:19.694Z,130.3
2019-05-21T03:25:31.906Z,107.4
2019-05-21T03:26:44.094Z,105.2
2019-05-21T03:27:56.482Z,113.9
2019-05-21T03:29:08.464Z,100.6
2019-05-21T03:30:20.721Z,109.4
2019-05-21T03:31:32.860Z,99.4
2019-05-21T03:32:45.073Z,105.1
2019-05-21T03:33:57.252Z,109.6
2019-05-21T03:35:09.437Z,110.7
2019-05-21T03:36:21.716Z,100.7
2019-05-21T03:37:33.822Z,89.4
2019-05-21T03:38:46.043Z,109.3
2019-05-21T03:39:58.326Z,99
2019-05-21T03:41:10.432Z,112.1
2019-05-21T03:42:22.640Z,103.9
2019-05-21T03:43:37.168Z,100.4
2019-05-21T03:44:47.023Z,101.5
2019-05-21T03:45:59.204Z,115.7
2019-05-21T03:47:11.398Z,105.8
2019-05-21T03:48:23.576Z,115.1
2019-05-21T03:49:35.765Z,119.2
2019-05-21T03:50:48.037Z,99.3
2019-05-21T03:52:00.289Z,109
2019-05-21T03:53:12.349Z,118.1
2019-05-21T03:54:24.565Z,129.1
2019-05-21T03:55:36.824Z,109.9
2019-05-21T03:56:48.933Z,97.3
2019-05-21T03:58:05.516Z,96.8
2019-05-21T03:59:13.323Z,84.5
2019-05-21T04:00:26.116Z,103.7
2019-05-21T04:01:37.817Z,110.8
2019-05-21T04:02:49.891Z,112.7
2019-05-21T04:04:02.205Z,96
2019-05-21T04:05:14.323Z,116
2019-05-21T04:06:26.567Z,112.6
2019-05-21T04:07:38.687Z,97.2
2019-05-21T04:08:50.860Z,121.9
2019-05-21T04:10:03.107Z,113.9
2019-05-21T04:11:15.260Z,128.8
2019-05-21T04:12:27.545Z,139.3
2019-05-21T04:13:39.714Z,111
2019-05-21T04:14:51.884Z,86.3
2019-05-21T04:16:04.172Z,84.2
2019-05-21T04:17:16.235Z,102.1
2019-05-21T04:18:28.414Z,73
2019-05-21T04:19:40.631Z,91.6
2019-05-21T04:20:52.850Z,71
2019-05-21T04:22:05.072Z,93.5
2019-05-21T04:23:17.223Z,82.4
2019-05-21T04:24:29.385Z,83.3
2019-05-21T04:25:41.581Z,91.4
2019-05-21T04:26:53.961Z,107
2019-05-21T04:28:06.080Z,81.5
2019-05-21T04:29:18.197Z,97.2
2019-05-21T04:30:36.181Z,94.7
2019-05-21T04:31:42.557Z,92.9
2019-05-21T04:32:54.746Z,76.4
2019-05-21T04:34:06.956Z,117.2
2019-05-21T04:35:19.211Z,89.6
2019-05-21T04:36:31.342Z,75.1
2019-05-21T04:37:43.535Z,75.4
2019-05-21T04:38:55.803Z,84.7
2019-05-21T04:40:08.024Z,63.3
2019-05-21T04:41:20.210Z,75.3
2019-05-21T04:42:32.333Z,86.9
2019-05-21T04:43:44.502Z,85.6
2019-05-21T04:44:59.418Z,84.2
2019-05-21T04:46:08.943Z,74.3
2019-05-21T04:47:21.089Z,98.4
2019-05-21T04:48:33.268Z,97.6
2019-05-21T04:49:45.528Z,92.2
2019-05-21T04:50:57.648Z,95
2019-05-21T04:52:10.066Z,103.5
2019-05-21T04:53:22.029Z,117.3
2019-05-21T04:54:34.235Z,110.3
2019-05-21T04:55:46.421Z,122.3
2019-05-21T04:56:58.700Z,112.4
2019-05-21T04:58:10.833Z,130.2
2019-05-21T04:59:23.023Z,131.4
2019-05-21T05:00:35.197Z,135.9
2019-05-21T05:01:47.394Z,131.7
2019-05-21T05:02:59.586Z,167.5
2019-05-21T05:04:11.920Z,162.4
2019-05-21T05:05:23.993Z,169.8
2019-05-21T05:06:36.185Z,144.9
2019-05-21T05:07:48.375Z,147
2019-05-21T05:09:00.555Z,150.1
2019-05-21T05:10:12.871Z,157.3
2019-05-21T05:11:24.940Z,157.5
2019-05-21T05:12:37.135Z,228.1
2019-05-21T05:13:49.331Z,172.1
2019-05-21T05:15:01.524Z,168
2019-05-21T05:16:13.809Z,181.7
2019-05-21T05:17:26.013Z,203.5
2019-05-21T05:18:38.100Z,172.4
2019-05-21T05:19:50.302Z,217.6
2019-05-21T05:21:02.486Z,202.9
2019-05-21T05:22:14.724Z,216.6
2019-05-21T05:23:26.961Z,203.9
2019-05-21T05:24:39.082Z,235.4
2019-05-21T05:25:51.282Z,200.5
2019-05-21T05:27:03.462Z,208.5
2019-05-21T05:28:15.867Z,220.3
2019-05-21T05:29:27.840Z,201.4
2019-05-21T05:30:40.164Z,225.1
2019-05-21T05:31:52.237Z,203.4
2019-05-21T05:33:04.429Z,184.4
2019-05-21T05:34:16.627Z,200.4
2019-05-21T05:35:28.810Z,248.7
2019-05-21T05:36:41.141Z,203.2
2019-05-21T05:37:53.331Z,217.7
2019-05-21T05:39:05.822Z,194.1
2019-05-21T05:40:17.705Z,204.3
2019-05-21T05:41:29.859Z,207.3
2019-05-21T05:42:41.974Z,212.9
2019-05-21T05:43:54.166Z,180.8
2019-05-21T05:45:06.418Z,183.6
2019-05-21T05:46:18.879Z,197.3
2019-05-21T05:47:30.754Z,179
2019-05-21T05:48:42.938Z,183.5
2019-05-21T05:49:55.160Z,180.7
2019-05-21T05:51:07.458Z,168.2
2019-05-21T05:52:19.621Z,184.2
2019-05-21T05:53:31.726Z,223.9
2019-05-21T05:54:43.994Z,184.8
2019-05-21T05:55:56.113Z,185.6
2019-05-21T05:57:08.315Z,197.9
2019-05-21T05:58:20.495Z,194.9
2019-05-21T05:59:32.693Z,191
2019-05-21T06:00:44.889Z,169.2
2019-05-21T06:01:57.157Z,161.2
2019-05-21T06:03:09.270Z,153.8
2019-05-21T06:04:21.665Z,171.1
2019-05-21T06:05:33.739Z,174.7
2019-05-21T06:06:45.857Z,148.3
2019-05-21T06:07:58.082Z,152.7
2019-05-21T06:09:10.238Z,148.7
2019-05-21T06:10:22.479Z,164
2019-05-21T06:11:35.600Z,148.8
2019-05-21T06:12:46.814Z,155.6
2019-05-21T06:13:59.027Z,136.9
2019-05-21T06:15:11.214Z,135
2019-05-21T06:16:23.492Z,136
2019-05-21T06:17:36.291Z,122
2019-05-21T06:18:50.327Z,148.7
2019-05-21T06:20:00.023Z,151
2019-05-21T06:21:12.186Z,142.1
2019-05-21T06:22:24.498Z,133.6
2019-05-21T06:23:37.203Z,154.8
2019-05-21T06:24:48.765Z,147.1
2019-05-21T06:26:00.961Z,126.3
2019-05-21T06:27:13.152Z,159.7
2019-05-21T06:28:25.344Z,132.1
2019-05-21T06:29:37.756Z,142.4
2019-05-21T06:30:49.738Z,133.3
2019-05-21T06:32:01.944Z,141.8
2019-05-21T06:33:14.186Z,114.3
2019-05-21T06:34:26.309Z,132.2
2019-05-21T06:35:38.497Z,149.4
2019-05-21T06:36:50.774Z,135
2019-05-21T06:38:02.950Z,139.3
2019-05-21T06:39:15.085Z,136.2
2019-05-21T06:40:27.394Z,150.4
2019-05-21T06:41:39.558Z,134.7
2019-05-21T06:42:51.808Z,130.9
2019-05-21T06:44:03.867Z,126.4
2019-05-21T06:45:16.127Z,109.3
2019-05-21T06:46:28.249Z,124.6
2019-05-21T06:47:40.526Z,149.4
2019-05-21T06:48:52.754Z,115.4
2019-05-21T06:50:04.833Z,118.4
2019-05-21T06:51:17.027Z,113.7
2019-05-21T06:52:29.219Z,114
2019-05-21T06:53:41.428Z,113.9
2019-05-21T06:54:53.806Z,111.6
2019-05-21T06:56:06.047Z,95.1
2019-05-21T06:57:17.996Z,91.9
2019-05-21T06:58:30.204Z,99.8
2019-05-21T06:59:42.390Z,97.3
2019-05-21T07:00:54.576Z,94.9
2019-05-21T07:02:06.873Z,113.4
2019-05-21T07:03:18.959Z,85.7
2019-05-21T07:04:31.325Z,91.2
2019-05-21T07:05:43.375Z,94.4
2019-05-21T07:06:55.596Z,100.6
2019-05-21T07:08:07.887Z,93
2019-05-21T07:09:19.936Z,101.9
2019-05-21T07:10:32.176Z,93.5
2019-05-21T07:11:44.322Z,110.7
2019-05-21T07:12:56.519Z,92.3
2019-05-21T07:14:08.753Z,100.6
2019-05-21T07:15:20.901Z,85.6
2019-05-21T07:16:33.191Z,117.9
2019-05-21T07:17:45.297Z,113.9
2019-05-21T07:18:57.560Z,109.4
2019-05-21T07:20:09.668Z,91
2019-05-21T07:21:21.871Z,110.7
2019-05-21T07:22:34.074Z,108.7
2019-05-21T07:23:46.265Z,106.5
2019-05-21T07:26:10.636Z,102.7
2019-05-21T07:27:22.942Z,98.5
2019-05-21T07:28:35.162Z,119.7
2019-05-21T07:29:47.227Z,115.7
2019-05-21T07:30:59.501Z,111.4
2019-05-21T07:32:11.623Z,100.4
2019-05-21T07:33:23.806Z,105.1
2019-05-21T07:34:36.036Z,114.1
2019-05-21T07:35:51.243Z,91.1
2019-05-21T07:37:00.395Z,119.6
2019-05-21T07:38:12.593Z,106.8
2019-05-21T07:39:24.860Z,107.1
2019-05-21T07:40:37.062Z,121.3
2019-05-21T07:41:49.172Z,123.4
2019-05-21T07:43:01.359Z,122.4
2019-05-21T07:44:13.572Z,99.6
2019-05-21T07:45:25.748Z,99.3
2019-05-21T07:46:38.046Z,109.9
2019-05-21T07:47:50.127Z,118.1
2019-05-21T07:49:02.430Z,126.2
2019-05-21T07:50:14.607Z,119.2
2019-05-21T07:51:26.761Z,111.4
2019-05-21T07:52:38.999Z,109
2019-05-21T07:53:51.103Z,127.8
2019-05-21T07:55:08.401Z,107.2
2019-05-21T07:56:15.595Z,116.2
2019-05-21T07:57:28.437Z,107.8
2019-05-21T07:58:39.873Z,132.9
2019-05-21T07:59:52.061Z,89.4
2019-05-21T08:01:04.268Z,93.5
2019-05-21T08:02:16.453Z,118.9
2019-05-21T08:03:28.694Z,95
2019-05-21T08:04:40.942Z,117.1
2019-05-21T08:05:53.040Z,90.5
2019-05-21T08:07:05.235Z,85.8
2019-05-21T08:08:17.424Z,81.2
2019-05-21T08:09:29.616Z,89.3
2019-05-21T08:10:41.814Z,93.3
2019-05-21T08:11:54.027Z,91.9
2019-05-21T08:13:07.253Z,98.1
2019-05-21T08:14:18.407Z,103.2
2019-05-21T08:15:30.649Z,93.4
2019-05-21T08:16:42.885Z,95.8
2019-05-21T08:17:54.974Z,104.2
2019-05-21T08:19:07.182Z,105.6
2019-05-21T08:20:19.365Z,116
2019-05-21T08:21:31.561Z,124.8
2019-05-21T08:22:43.761Z,110.4
2019-05-21T08:23:55.949Z,100.2
2019-05-21T08:25:11.263Z,109.5
2019-05-21T08:26:20.333Z,93.2
2019-05-21T08:27:32.548Z,99.1
2019-05-21T08:28:44.809Z,105.4
2019-05-21T08:29:56.901Z,86.6
2019-05-21T08:31:09.206Z,106.7
2019-05-21T08:32:21.387Z,111.2
2019-05-21T08:33:33.508Z,79.4
2019-05-21T08:34:45.698Z,79.8
2019-05-21T08:35:57.989Z,75.4
2019-05-21T08:37:10.190Z,80.5
2019-05-21T08:38:22.275Z,78
2019-05-21T08:39:34.466Z,64.1
2019-05-21T08:40:46.748Z,77.4
2019-05-21T08:41:58.868Z,74.1
2019-05-21T08:43:11.043Z,90.9
2019-05-21T08:44:23.264Z,75.1
2019-05-21T08:45:35.423Z,76.1
2019-05-21T08:46:47.721Z,75.9
2019-05-21T08:47:59.831Z,71.9
2019-05-21T08:49:12.028Z,71.6
2019-05-21T08:50:24.216Z,78.1
2019-05-21T08:51:36.448Z,74.7
2019-05-21T08:52:48.699Z,78.6
2019-05-21T08:54:00.787Z,65.3
2019-05-21T08:55:12.994Z,69.4
2019-05-21T08:56:25.176Z,59.7
2019-05-21T08:57:37.365Z,74
2019-05-21T08:58:50.297Z,71.8
2019-05-21T09:00:01.758Z,65.1
2019-05-21T09:01:13.960Z,61
2019-05-21T09:02:26.150Z,65
2019-05-21T09:03:38.388Z,62.6
2019-05-21T09:04:50.633Z,63.6
2019-05-21T09:06:02.790Z,54.2
2019-05-21T09:07:14.924Z,56.8
2019-05-21T09:08:28.424Z,49.8
2019-05-21T09:09:39.314Z,52.9
2019-05-21T09:10:51.605Z,74.1
2019-05-21T09:12:03.696Z,55
2019-05-21T09:13:16.175Z,48.8
2019-05-21T09:14:28.386Z,53.5
2019-05-21T09:15:40.293Z,62.2
2019-05-21T09:16:52.656Z,67.5
2019-05-21T09:18:04.671Z,70.8
2019-05-21T09:19:16.866Z,55.9
2019-05-21T09:20:29.174Z,65.2
2019-05-21T09:21:41.268Z,55.6
2019-05-21T09:22:53.475Z,62.2
2019-05-21T09:24:05.631Z,72.7
2019-05-21T09:25:17.855Z,56.3
2019-05-21T09:26:30.031Z,57.1
2019-05-21T09:27:42.219Z,54.5
2019-05-21T09:28:54.518Z,51.8
2019-05-21T09:30:06.781Z,73.1
2019-05-21T09:31:18.817Z,66
2019-05-21T09:32:31.101Z,60.8
2019-05-21T09:33:43.182Z,48.6
2019-05-21T09:34:55.392Z,51.2
2019-05-21T09:36:07.601Z,56.5
2019-05-21T09:37:19.854Z,64.8
2019-05-21T09:38:32.004Z,69.8
2019-05-21T09:39:44.147Z,66.4
2019-05-21T09:40:56.444Z,95.5
2019-05-21T09:42:08.554Z,75.9
2019-05-21T09:43:20.731Z,77.1
2019-05-21T09:44:32.952Z,73.6
2019-05-21T09:45:45.241Z,78.5
2019-05-21T09:46:57.410Z,75.2
2019-05-21T09:48:09.680Z,88.1
2019-05-21T09:49:21.810Z,73.7
2019-05-21T09:50:33.902Z,62.6
2019-05-21T09:51:46.092Z,84.2
2019-05-21T09:52:58.407Z,67.2
2019-05-21T09:54:10.607Z,63.7
2019-05-21T09:55:22.900Z,71.7
2019-05-21T09:56:34.884Z,88
2019-05-21T09:57:47.065Z,61.6
2019-05-21T09:58:59.258Z,70.7
2019-05-21T10:00:11.475Z,57.4
2019-05-21T10:01:26.799Z,47.2
2019-05-21T10:02:35.846Z,58
2019-05-21T10:03:48.024Z,55.1
2019-05-21T10:05:00.312Z,61.2
2019-05-21T10:06:12.438Z,57.8
2019-05-21T10:07:24.684Z,55
2019-05-21T10:08:36.817Z,56.4
2019-05-21T10:09:49.051Z,57.6
2019-05-21T10:11:01.194Z,51.4
2019-05-21T10:12:13.402Z,57.7
2019-05-21T10:13:25.675Z,56.3
2019-05-21T10:14:37.817Z,53.4
2019-05-21T10:15:49.995Z,55.8
2019-05-21T10:17:02.253Z,45.3
2019-05-21T10:18:14.351Z,44.8
2019-05-21T10:19:26.561Z,52.8
2019-05-21T10:21:52.276Z,50.3
2019-05-21T10:23:05.111Z,68
2019-05-21T10:24:15.452Z,49.9
2019-05-21T10:25:27.696Z,58.2
2019-05-21T10:26:39.729Z,61.8
2019-05-21T10:27:51.907Z,49.7
2019-05-21T10:29:04.235Z,56.3
2019-05-21T10:30:16.299Z,44.4
2019-05-21T10:31:28.525Z,46.7
2019-05-21T10:32:40.692Z,45.3
2019-05-21T10:33:52.917Z,43.2
2019-05-21T10:35:05.124Z,43.8
2019-05-21T10:36:17.269Z,45.2
2019-05-21T10:37:29.498Z,40.9
2019-05-21T10:38:41.657Z,45.2
2019-05-21T10:39:54.014Z,49.9
2019-05-21T10:41:06.132Z,44.8
2019-05-21T10:42:18.237Z,52.2
2019-05-21T10:43:30.436Z,55.5
2019-05-21T10:44:42.627Z,48.5
2019-05-21T10:45:54.811Z,47
2019-05-21T10:47:07.036Z,58.7
2019-05-21T10:48:19.234Z,60.1
2019-05-21T10:49:31.534Z,55.2
2019-05-21T10:50:43.622Z,55.7
2019-05-21T10:51:55.798Z,65.9
2019-05-21T10:53:08.076Z,55.6
2019-05-21T10:54:20.169Z,63
2019-05-21T10:55:32.369Z,69.4
2019-05-21T10:56:44.578Z,51.8
2019-05-21T10:57:56.753Z,56.5
2019-05-21T10:59:08.973Z,57.2
2019-05-21T11:00:21.174Z,50.4
2019-05-21T11:01:33.361Z,52
2019-05-21T11:02:45.528Z,53.8
2019-05-21T11:03:57.803Z,48.1
2019-05-21T11:05:10.014Z,50.3
2019-05-21T11:06:22.108Z,43.4
2019-05-21T11:07:34.305Z,41.4
2019-05-21T11:08:46.564Z,36.8
2019-05-21T11:09:58.819Z,47.7
2019-05-21T11:11:10.911Z,43.9
2019-05-21T11:12:23.117Z,39.2
2019-05-21T11:13:35.323Z,38.6
2019-05-21T11:14:47.486Z,38.1
2019-05-21T11:15:59.670Z,41.1
2019-05-21T11:17:11.958Z,45
2019-05-21T11:18:24.368Z,40.9
2019-05-21T11:19:36.253Z,39.1
2019-05-21T11:20:48.468Z,40.3
2019-05-21T11:22:00.747Z,40.5
2019-05-21T11:23:12.827Z,32.5
2019-05-21T11:24:25.144Z,39.3
2019-05-21T11:25:37.218Z,35.6
2019-05-21T11:26:49.412Z,39.4
2019-05-21T11:28:01.615Z,35.4
2019-05-21T11:29:13.882Z,36.5
2019-05-21T11:30:25.993Z,38.2
2019-05-21T11:31:38.281Z,36.4
2019-05-21T11:32:50.400Z,38.9
2019-05-21T11:34:02.564Z,40.2
2019-05-21T11:35:14.765Z,35.9
2019-05-21T11:36:27.669Z,39.1
2019-05-21T11:37:39.189Z,45.3
2019-05-21T11:38:51.382Z,40.5
2019-05-21T11:40:03.563Z,35.2
2019-05-21T11:41:16.009Z,41.7
2019-05-21T11:42:27.972Z,46.1
2019-05-21T11:43:40.132Z,41.5
2019-05-21T11:44:52.310Z,36.8
2019-05-21T11:46:04.580Z,41.1
2019-05-21T11:47:16.712Z,35
2019-05-21T11:48:28.895Z,32.4
2019-05-21T11:49:41.163Z,37.1
2019-05-21T11:50:53.301Z,43.9
2019-05-21T11:52:05.588Z,49.9
2019-05-21T11:53:18.180Z,47.4
2019-05-21T11:54:29.876Z,52.9
2019-05-21T11:55:42.063Z,48.4
2019-05-21T11:56:54.401Z,44.8
2019-05-21T11:58:06.526Z,48.3
2019-05-21T11:59:18.663Z,52.6
2019-05-21T12:00:30.864Z,60.9
2019-05-21T12:01:43.090Z,50.4
2019-05-21T12:02:55.227Z,48.2
2019-05-21T12:04:07.426Z,58.1
2019-05-21T12:05:19.703Z,51.1
2019-05-21T12:06:31.802Z,53.5
2019-05-21T12:07:44.006Z,66.5
2019-05-21T12:08:56.266Z,53.7
2019-05-21T12:10:08.466Z,55.8
2019-05-21T12:11:20.579Z,56.9
2019-05-21T12:12:32.808Z,52.4
2019-05-21T12:13:44.974Z,65.6
2019-05-21T12:14:57.175Z,52.9
2019-05-21T12:16:09.792Z,59.2
2019-05-21T12:17:21.780Z,54.6
2019-05-21T12:18:33.753Z,55.8
2019-05-21T12:19:45.949Z,70
2019-05-21T12:20:58.170Z,65.6
2019-05-21T12:22:10.332Z,65.7
2019-05-21T12:23:22.605Z,49.9
2019-05-21T12:24:34.740Z,47.1
2019-05-21T12:25:46.905Z,50
2019-05-21T12:26:59.199Z,47.5
2019-05-21T12:28:11.301Z,47.9
2019-05-21T12:29:23.586Z,50.1
2019-05-21T12:30:35.682Z,44.2
2019-05-21T12:31:47.879Z,53.1
2019-05-21T12:33:00.095Z,51.1
2019-05-21T12:34:12.267Z,48.3
2019-05-21T12:35:24.546Z,47.4
2019-05-21T12:36:36.761Z,57
2019-05-21T12:37:48.850Z,52.5
2019-05-21T12:39:01.072Z,49.7
2019-05-21T12:40:13.236Z,51.1
2019-05-21T12:41:25.584Z,49.8
2019-05-21T12:42:37.729Z,47.7
2019-05-21T12:43:49.875Z,56.2
2019-05-21T12:45:02.034Z,46.2
2019-05-21T12:46:14.203Z,47.7
2019-05-21T12:47:26.418Z,49.6
2019-05-21T12:48:38.710Z,42.6
2019-05-21T12:49:51.978Z,41.5
2019-05-21T12:51:05.327Z,39.7
2019-05-21T12:52:15.185Z,43.8
2019-05-21T12:53:27.472Z,49.5
2019-05-21T12:54:39.596Z,44.8
2019-05-21T12:55:53.871Z,41.7
2019-05-21T12:57:03.985Z,50.5
2019-05-21T12:58:16.149Z,46
2019-05-21T12:59:28.332Z,53.3
2019-05-21T13:00:40.866Z,56.4
2019-05-21T13:01:52.817Z,48.6
2019-05-21T13:03:05.016Z,43.1
2019-05-21T13:04:17.116Z,46
2019-05-21T13:05:29.491Z,47.5
2019-05-21T13:06:41.547Z,45.8
2019-05-21T13:07:53.701Z,51.3
2019-05-21T13:09:06.115Z,57.6
2019-05-21T13:10:19.846Z,46.6
2019-05-21T13:11:30.274Z,55.5
2019-05-21T13:12:42.490Z,52
2019-05-21T13:13:54.673Z,41.3
2019-05-21T13:15:06.898Z,46.5
2019-05-21T13:16:19.100Z,48.8
2019-05-21T13:17:32.361Z,49.3
2019-05-21T13:18:43.551Z,51.5
2019-05-21T13:19:55.679Z,48.9
2019-05-21T13:21:08.029Z,58.2
2019-05-21T13:22:20.079Z,56
2019-05-21T13:23:32.229Z,54.6
2019-05-21T13:24:44.452Z,56.4
2019-05-21T13:25:56.694Z,57.2
2019-05-21T13:27:08.809Z,54.8
2019-05-21T13:28:21.179Z,52
2019-05-21T13:29:33.322Z,52.6
2019-05-21T13:30:45.477Z,62
2019-05-21T13:31:57.610Z,54.3
2019-05-21T13:33:09.994Z,66
2019-05-21T13:34:21.975Z,60.8
2019-05-21T13:35:34.167Z,60.1
2019-05-21T13:36:46.415Z,56.1
2019-05-21T13:37:58.574Z,64.1
2019-05-21T13:39:10.770Z,51.7
2019-05-21T13:40:22.978Z,60.4
2019-05-21T13:41:35.250Z,56
2019-05-21T13:42:47.362Z,67
2019-05-21T13:43:59.561Z,64.3
2019-05-21T13:45:11.729Z,60.3
2019-05-21T13:46:23.997Z,63.5
2019-05-21T13:47:36.129Z,58.6
2019-05-21T13:48:48.434Z,64.9
2019-05-21T13:50:00.691Z,58.6
2019-05-21T13:51:12.817Z,60.7
2019-05-21T13:52:24.919Z,63.1
2019-05-21T13:53:37.299Z,64.3
2019-05-21T13:54:49.385Z,64.4
2019-05-21T13:56:01.518Z,59.7
2019-05-21T13:57:13.792Z,59.4
2019-05-21T13:58:25.889Z,52.8
2019-05-21T13:59:38.092Z,51
2019-05-21T14:00:50.431Z,61.9
2019-05-21T14:02:02.491Z,51.5
2019-05-21T14:03:14.688Z,59.4
2019-05-21T14:04:26.863Z,53.8
2019-05-21T14:05:39.163Z,53.5
2019-05-21T14:06:51.265Z,59.6
2019-05-21T14:08:03.592Z,58.5
2019-05-21T14:09:15.645Z,49
2019-05-21T14:10:27.844Z,68.1
2019-05-21T14:11:40.053Z,59.2
2019-05-21T14:12:52.318Z,58.5
2019-05-21T14:14:04.437Z,51.2
2019-05-21T14:15:16.647Z,56.7
2019-05-21T14:16:28.845Z,48.9
2019-05-21T14:17:41.116Z,53.7
2019-05-21T14:18:53.222Z,45.2
2019-05-21T14:20:05.446Z,45.7
2019-05-21T14:21:17.599Z,44.9
2019-05-21T14:22:29.877Z,52.1
2019-05-21T14:23:41.988Z,43.5
2019-05-21T14:24:54.229Z,53.3
2019-05-21T14:26:06.488Z,50.4
2019-05-21T14:27:19.351Z,46.9
2019-05-21T14:28:32.243Z,44.8
2019-05-21T14:29:45.370Z,51.1
2019-05-21T14:30:59.996Z,50.2
2019-05-21T14:32:07.367Z,50
2019-05-21T14:33:19.558Z,48.8
2019-05-21T14:34:31.821Z,53.1
2019-05-21T14:35:43.937Z,48.7
2019-05-21T14:36:56.157Z,59.7
2019-05-21T14:38:08.422Z,49.6
2019-05-21T14:39:20.559Z,43.6
2019-05-21T14:40:32.816Z,44.2
2019-05-21T14:41:45.174Z,63.1
2019-05-21T14:42:57.153Z,55.1
2019-05-21T14:44:09.378Z,46.6
2019-05-21T14:45:21.638Z,40.4
2019-05-21T14:46:33.701Z,51.4
2019-05-21T14:47:46.075Z,58.6
2019-05-21T14:48:58.183Z,45.7
2019-05-21T14:50:10.325Z,41.9
2019-05-21T14:51:22.538Z,45.1
2019-05-21T14:52:34.674Z,40.1
2019-05-21T14:53:46.958Z,45.8
2019-05-21T14:55:01.200Z,44.5
2019-05-21T14:56:16.937Z,45.6
2019-05-21T14:57:23.513Z,46
2019-05-21T14:58:35.684Z,52
2019-05-21T14:59:47.847Z,42.1
2019-05-21T15:01:00.096Z,44.4
2019-05-21T15:02:12.249Z,40.9
2019-05-21T15:03:24.443Z,41.5
2019-05-21T15:04:36.717Z,39.4
2019-05-21T15:05:48.999Z,38.3
2019-05-21T15:07:01.022Z,36.6
2019-05-21T15:08:13.225Z,36.5
2019-05-21T15:09:25.449Z,36.5
2019-05-21T15:10:37.633Z,42.8
2019-05-21T15:11:49.799Z,39.9
2019-05-21T15:13:02.026Z,40.1
2019-05-21T15:14:14.209Z,42.9
2019-05-21T15:15:26.394Z,44.1
2019-05-21T15:16:38.659Z,42.6
2019-05-21T15:17:50.873Z,38.5
2019-05-21T15:19:02.980Z,37
2019-05-21T15:20:15.201Z,34.2
2019-05-21T15:21:27.419Z,34.9
2019-05-21T15:22:39.642Z,31.3
2019-05-21T15:23:51.920Z,35
2019-05-21T15:25:04.002Z,37.1
2019-05-21T15:26:16.309Z,34
2019-05-21T15:27:28.339Z,30.4
2019-05-21T15:28:40.608Z,30.6
2019-05-21T15:29:52.848Z,33.8
2019-05-21T15:31:04.930Z,40.2
2019-05-21T15:32:17.139Z,35.6
2019-05-21T15:33:29.405Z,41.7
2019-05-21T15:34:41.519Z,29.1
2019-05-21T15:35:53.714Z,37.5
2019-05-21T15:37:05.947Z,33.2
2019-05-21T15:38:18.127Z,36.5
2019-05-21T15:39:30.294Z,35.1
2019-05-21T15:40:42.503Z,41.5
2019-05-21T15:41:54.797Z,37.6
2019-05-21T15:43:06.929Z,37.3
2019-05-21T15:44:19.091Z,36.7
2019-05-21T15:45:31.273Z,34.1
2019-05-21T15:46:43.458Z,36
2019-05-21T15:47:55.656Z,45
2019-05-21T15:49:07.868Z,35.3
2019-05-21T15:50:20.117Z,34.2
2019-05-21T15:51:32.269Z,34.9
2019-05-21T15:52:44.701Z,39.2
2019-05-21T15:53:56.780Z,31.9
2019-05-21T15:55:09.853Z,35.4
2019-05-21T15:56:21.046Z,40
2019-05-21T15:57:33.227Z,32.7
2019-05-21T15:58:45.444Z,35.4
2019-05-21T15:59:57.713Z,38.6